Cover City, Nevada
Current Conditions -  °F | °C
As of 11:55 AM on Sunday 23 Nov 2014 (Local Time) from KENV Reporting Station
Clear Clear  
Wind Chill: 36°   Ceiling: Unl
Heat Index: 43°   Visibility: 10mi
Dew Point: 19°   Wind: 13mph
Humidity: 39%   Direction: 320°NW
Pressure: 30.27"   Gusts: 26mph
Location:  41.0114°N, 114.57°W
Report Text: KENV 231955Z AUTO 32011G23KT 10SM CLR 06/M07 A3027 RMK AO1
Loading
Personal Weather Stations






























Interactive Weather Map New forecast layout! Learn more

10-Day Weather Forecast

Advertisements
Track Severe Weather on mobile